createdAt,value
2019-03-24T00:01:10.499Z,9.40
2019-03-24T00:03:39.153Z,9.50
2019-03-24T00:06:07.807Z,9.50
2019-03-24T00:08:36.435Z,9.50
2019-03-24T00:11:05.234Z,9.40
2019-03-24T00:13:35.247Z,9.40
2019-03-24T00:16:03.907Z,9.40
2019-03-24T00:18:32.499Z,9.30
2019-03-24T00:21:01.164Z,9.30
2019-03-24T00:23:29.811Z,9.30
2019-03-24T00:25:58.490Z,9.20
2019-03-24T00:28:27.379Z,9.00
2019-03-24T00:30:55.967Z,9.00
2019-03-24T00:33:24.609Z,9.00
2019-03-24T00:35:53.262Z,8.90
2019-03-24T00:38:21.922Z,9.00
2019-03-24T00:40:50.641Z,8.90
2019-03-24T00:43:19.382Z,8.90
2019-03-24T00:45:47.993Z,8.90
2019-03-24T00:48:16.903Z,8.80
2019-03-24T00:50:45.605Z,8.80
2019-03-24T00:53:14.244Z,8.70
2019-03-24T00:55:42.945Z,8.70
2019-03-24T00:58:11.609Z,8.70
2019-03-24T01:00:42.403Z,8.60
2019-03-24T01:03:11.202Z,8.60
2019-03-24T01:05:39.810Z,8.60
2019-03-24T01:08:08.407Z,8.50
2019-03-24T01:10:37.098Z,8.50
2019-03-24T01:13:05.735Z,8.50
2019-03-24T01:15:34.462Z,8.40
2019-03-24T01:18:03.031Z,8.40
2019-03-24T01:20:31.678Z,8.40
2019-03-24T01:23:00.393Z,8.40
2019-03-24T01:25:28.963Z,8.30
2019-03-24T01:27:57.564Z,8.40
2019-03-24T01:30:26.217Z,8.30
2019-03-24T01:32:54.861Z,8.30
2019-03-24T01:35:23.489Z,8.30
2019-03-24T01:37:52.121Z,8.20
2019-03-24T01:40:20.766Z,8.30
2019-03-24T01:42:49.358Z,8.30
2019-03-24T01:45:18.430Z,8.30
2019-03-24T01:47:47.062Z,8.30
2019-03-24T01:50:15.751Z,8.20
2019-03-24T01:52:44.361Z,8.20
2019-03-24T01:55:13.031Z,8.10
2019-03-24T01:57:41.750Z,8.10
2019-03-24T02:00:10.525Z,8.00
2019-03-24T02:02:39.461Z,8.00
2019-03-24T02:05:08.219Z,8.00
2019-03-24T02:07:38.686Z,8.00
2019-03-24T02:10:07.998Z,7.90
2019-03-24T02:12:36.555Z,7.80
2019-03-24T02:15:05.525Z,7.80
2019-03-24T02:17:34.094Z,7.70
2019-03-24T02:20:03.058Z,7.70
2019-03-24T02:22:32.770Z,7.70
2019-03-24T02:25:01.550Z,7.60
2019-03-24T02:27:30.201Z,7.60
2019-03-24T02:29:58.825Z,7.60
2019-03-24T02:32:27.393Z,7.60
2019-03-24T02:34:56.016Z,7.60
2019-03-24T02:37:24.571Z,7.70
2019-03-24T02:39:53.568Z,7.70
2019-03-24T02:42:22.130Z,7.60
2019-03-24T02:44:50.813Z,7.60
2019-03-24T02:47:19.513Z,7.60
2019-03-24T02:49:48.109Z,7.60
2019-03-24T02:52:16.845Z,7.60
2019-03-24T02:54:45.462Z,7.70
2019-03-24T02:57:14.105Z,7.60
2019-03-24T02:59:42.681Z,7.70
2019-03-24T03:02:11.370Z,7.70
2019-03-24T03:04:40.303Z,7.70
2019-03-24T03:07:08.878Z,7.70
2019-03-24T03:09:37.474Z,7.60
2019-03-24T03:12:06.051Z,7.70
2019-03-24T03:14:34.670Z,7.60
2019-03-24T03:17:03.245Z,7.50
2019-03-24T03:19:31.848Z,7.60
2019-03-24T03:22:00.683Z,7.60
2019-03-24T03:24:29.303Z,7.70
2019-03-24T03:26:57.874Z,7.60
2019-03-24T03:29:26.486Z,7.50
2019-03-24T03:31:55.063Z,7.50
2019-03-24T03:34:23.791Z,7.50
2019-03-24T03:36:52.390Z,7.60
2019-03-24T03:39:21.012Z,7.60
2019-03-24T03:41:49.565Z,7.50
2019-03-24T03:44:18.150Z,7.40
2019-03-24T03:46:52.372Z,7.40
2019-03-24T03:49:17.119Z,7.40
2019-03-24T03:51:45.715Z,7.40
2019-03-24T03:54:14.303Z,7.40
2019-03-24T03:56:42.941Z,7.40
2019-03-24T03:59:11.511Z,7.30
2019-03-24T04:01:40.131Z,7.30
2019-03-24T04:04:08.698Z,7.40
2019-03-24T04:06:37.327Z,7.40
2019-03-24T04:09:06.834Z,7.30
2019-03-24T04:11:35.453Z,7.20
2019-03-24T04:14:04.039Z,7.10
2019-03-24T04:16:32.703Z,7.00
2019-03-24T04:19:01.388Z,7.00
2019-03-24T04:21:30.058Z,6.90
2019-03-24T04:23:58.679Z,6.90
2019-03-24T04:26:27.288Z,6.90
2019-03-24T04:28:55.926Z,6.90
2019-03-24T04:31:24.581Z,6.90
2019-03-24T04:33:53.233Z,6.90
2019-03-24T04:36:21.820Z,6.90
2019-03-24T04:38:50.464Z,6.80
2019-03-24T04:41:19.019Z,6.80
2019-03-24T04:43:47.710Z,6.80
2019-03-24T04:46:16.263Z,6.70
2019-03-24T04:48:44.933Z,6.80
2019-03-24T04:51:13.670Z,6.80
2019-03-24T04:53:42.240Z,6.80
2019-03-24T04:56:11.851Z,6.70
2019-03-24T04:58:40.686Z,6.70
2019-03-24T05:01:09.287Z,6.70
2019-03-24T05:03:37.970Z,6.70
2019-03-24T05:06:06.516Z,6.60
2019-03-24T05:08:35.162Z,6.70
2019-03-24T05:11:03.948Z,6.60
2019-03-24T05:13:32.616Z,6.60
2019-03-24T05:16:01.312Z,6.50
2019-03-24T05:18:29.936Z,6.40
2019-03-24T05:20:58.514Z,6.40
2019-03-24T05:23:27.182Z,6.40
2019-03-24T05:25:55.754Z,6.40
2019-03-24T05:28:24.353Z,6.40
2019-03-24T05:30:52.950Z,6.40
2019-03-24T05:33:21.517Z,6.40
2019-03-24T05:35:50.108Z,6.40
2019-03-24T05:38:18.696Z,6.40
2019-03-24T05:40:47.367Z,6.30
2019-03-24T05:43:16.152Z,6.30
2019-03-24T05:45:44.781Z,6.30
2019-03-24T05:48:13.365Z,6.40
2019-03-24T05:50:41.974Z,6.40
2019-03-24T05:53:10.584Z,6.40
2019-03-24T05:55:39.235Z,6.40
2019-03-24T05:58:07.819Z,6.40
2019-03-24T06:00:36.457Z,6.50
2019-03-24T06:03:05.020Z,6.40
2019-03-24T06:05:33.762Z,6.40
2019-03-24T06:08:02.390Z,6.40
2019-03-24T06:10:31.005Z,6.40
2019-03-24T06:12:59.828Z,6.40
2019-03-24T06:15:28.460Z,6.40
2019-03-24T06:17:57.290Z,6.40
2019-03-24T06:20:25.941Z,6.30
2019-03-24T06:22:54.447Z,6.40
2019-03-24T06:25:23.203Z,6.30
2019-03-24T06:27:51.790Z,6.30
2019-03-24T06:30:20.407Z,6.30
2019-03-24T06:32:49.465Z,6.20
2019-03-24T06:35:18.045Z,6.30
2019-03-24T06:37:46.754Z,6.30
2019-03-24T06:40:15.538Z,6.40
2019-03-24T06:42:44.146Z,6.40
2019-03-24T06:45:12.810Z,6.40
2019-03-24T06:47:41.418Z,6.50
2019-03-24T06:50:10.051Z,6.50
2019-03-24T06:52:38.641Z,6.50
2019-03-24T06:55:07.267Z,6.50
2019-03-24T06:57:35.932Z,6.40
2019-03-24T07:00:05.034Z,6.50
2019-03-24T07:02:33.670Z,6.40
2019-03-24T07:05:02.323Z,6.50
2019-03-24T07:07:30.948Z,6.50
2019-03-24T07:09:59.612Z,6.50
2019-03-24T07:12:28.185Z,6.50
2019-03-24T07:14:57.587Z,6.60
2019-03-24T07:17:26.191Z,6.60
2019-03-24T07:19:54.954Z,6.60
2019-03-24T07:22:23.494Z,6.70
2019-03-24T07:24:52.121Z,6.80
2019-03-24T07:27:20.742Z,6.70
2019-03-24T07:29:49.335Z,6.80
2019-03-24T07:32:17.950Z,6.80
2019-03-24T07:34:46.617Z,6.80
2019-03-24T07:37:15.281Z,6.90
2019-03-24T07:39:43.985Z,7.00
2019-03-24T07:42:12.666Z,7.10
2019-03-24T07:44:41.279Z,7.10
2019-03-24T07:47:13.111Z,7.10
2019-03-24T07:49:42.136Z,7.20
2019-03-24T07:52:10.746Z,7.30
2019-03-24T07:54:39.544Z,7.40
2019-03-24T07:57:08.123Z,7.50
2019-03-24T07:59:36.860Z,7.60
2019-03-24T08:02:05.573Z,7.60
2019-03-24T08:04:34.186Z,7.60
2019-03-24T08:07:02.829Z,7.70
2019-03-24T08:09:31.574Z,7.80
2019-03-24T08:12:00.210Z,7.90
2019-03-24T08:14:28.848Z,8.00
2019-03-24T08:16:57.484Z,8.10
2019-03-24T08:19:26.154Z,8.30
2019-03-24T08:21:54.736Z,8.40
2019-03-24T08:24:23.386Z,8.50
2019-03-24T08:26:52.033Z,8.60
2019-03-24T08:29:20.769Z,8.80
2019-03-24T08:31:49.546Z,9.00
2019-03-24T08:34:18.285Z,9.20
2019-03-24T08:36:47.124Z,9.40
2019-03-24T08:39:15.790Z,9.30
2019-03-24T08:41:44.503Z,9.30
2019-03-24T08:44:13.197Z,9.20
2019-03-24T08:46:44.419Z,9.20
2019-03-24T08:49:12.439Z,9.30
2019-03-24T08:51:41.124Z,9.10
2019-03-24T08:54:09.787Z,9.00
2019-03-24T08:56:38.476Z,9.00
2019-03-24T08:59:07.093Z,9.00
2019-03-24T09:01:35.749Z,9.00
2019-03-24T09:04:04.391Z,8.90
2019-03-24T09:06:33.157Z,8.70
2019-03-24T09:09:01.854Z,8.80
2019-03-24T09:11:31.529Z,8.80
2019-03-24T09:14:00.636Z,8.80
2019-03-24T09:16:29.461Z,9.20
2019-03-24T09:18:58.127Z,9.50
2019-03-24T09:21:26.785Z,9.80
2019-03-24T09:23:55.490Z,10.00
2019-03-24T09:26:24.194Z,10.10
2019-03-24T09:28:52.926Z,9.80
2019-03-24T09:31:21.657Z,9.60
2019-03-24T09:33:50.453Z,9.70
2019-03-24T09:36:19.182Z,9.50
2019-03-24T09:38:47.958Z,9.40
2019-03-24T09:41:16.573Z,9.30
2019-03-24T09:43:45.347Z,9.40
2019-03-24T09:46:14.049Z,9.40
2019-03-24T09:48:42.822Z,9.40
2019-03-24T09:51:11.473Z,9.40
2019-03-24T09:53:40.245Z,9.50
2019-03-24T09:56:09.006Z,9.50
2019-03-24T09:58:37.815Z,9.60
2019-03-24T10:01:06.540Z,9.60
2019-03-24T10:03:35.339Z,9.70
2019-03-24T10:06:04.113Z,9.90
2019-03-24T10:08:32.810Z,10.10
2019-03-24T10:11:01.537Z,10.00
2019-03-24T10:13:30.281Z,10.00
2019-03-24T10:15:59.034Z,10.00
2019-03-24T10:18:27.707Z,10.00
2019-03-24T10:20:56.502Z,10.00
2019-03-24T10:23:25.202Z,10.00
2019-03-24T10:25:53.973Z,10.10
2019-03-24T10:28:22.653Z,10.30
2019-03-24T10:30:51.457Z,10.30
2019-03-24T10:33:20.188Z,9.90
2019-03-24T10:35:48.878Z,9.90
2019-03-24T10:38:17.582Z,10.00
2019-03-24T10:40:46.323Z,10.00
2019-03-24T10:43:14.944Z,10.10
2019-03-24T10:45:43.739Z,10.40
2019-03-24T10:48:12.399Z,10.60
2019-03-24T10:50:41.103Z,10.80
2019-03-24T10:53:09.906Z,10.60
2019-03-24T10:55:38.692Z,10.60
2019-03-24T10:58:07.738Z,10.50
2019-03-24T11:00:37.809Z,10.50
2019-03-24T11:03:06.824Z,10.70
2019-03-24T11:05:35.562Z,10.90
2019-03-24T11:08:04.336Z,11.10
2019-03-24T11:10:33.028Z,11.20
2019-03-24T11:13:02.157Z,11.30
2019-03-24T11:15:31.152Z,11.20
2019-03-24T11:17:59.989Z,11.30
2019-03-24T11:20:28.823Z,11.00
2019-03-24T11:22:57.521Z,11.10
2019-03-24T11:25:26.314Z,10.90
2019-03-24T11:27:55.112Z,10.70
2019-03-24T11:30:23.826Z,10.80
2019-03-24T11:32:52.693Z,10.90
2019-03-24T11:35:21.796Z,10.80
2019-03-24T11:37:50.615Z,10.90
2019-03-24T11:40:19.432Z,11.10
2019-03-24T11:42:48.611Z,11.30
2019-03-24T11:45:17.611Z,11.40
2019-03-24T11:47:46.389Z,11.40
2019-03-24T11:50:15.115Z,11.50
2019-03-24T11:52:44.995Z,11.70
2019-03-24T11:55:15.675Z,11.60
2019-03-24T11:57:44.469Z,11.60
2019-03-24T12:00:14.186Z,11.60
2019-03-24T12:02:43.261Z,11.70
2019-03-24T12:05:12.064Z,11.80
2019-03-24T12:07:40.822Z,12.10
2019-03-24T12:10:11.334Z,12.20
2019-03-24T12:12:40.087Z,12.20
2019-03-24T12:15:09.135Z,12.10
2019-03-24T12:17:38.017Z,12.20
2019-03-24T12:20:07.111Z,12.00
2019-03-24T12:22:35.878Z,11.80
2019-03-24T12:25:04.735Z,11.70
2019-03-24T12:27:33.449Z,11.60
2019-03-24T12:30:02.229Z,11.60
2019-03-24T12:32:30.931Z,11.70
2019-03-24T12:34:59.652Z,11.80
2019-03-24T12:37:28.304Z,11.70
2019-03-24T12:39:58.163Z,11.80
2019-03-24T12:42:27.088Z,11.50
2019-03-24T12:44:55.778Z,11.40
2019-03-24T12:47:24.813Z,11.50
2019-03-24T12:49:53.622Z,11.70
2019-03-24T12:52:22.300Z,11.90
2019-03-24T12:54:51.129Z,12.00
2019-03-24T12:57:19.873Z,11.40
2019-03-24T12:59:48.655Z,11.40
2019-03-24T13:02:17.350Z,11.70
2019-03-24T13:04:46.127Z,11.70
2019-03-24T13:07:15.058Z,11.70
2019-03-24T13:09:43.782Z,11.50
2019-03-24T13:12:12.594Z,11.50
2019-03-24T13:14:41.390Z,11.50
2019-03-24T13:17:10.112Z,11.60
2019-03-24T13:19:38.918Z,11.60
2019-03-24T13:22:07.627Z,11.40
2019-03-24T13:24:37.466Z,11.50
2019-03-24T13:27:06.299Z,11.60
2019-03-24T13:29:35.743Z,11.50
2019-03-24T13:32:04.580Z,11.60
2019-03-24T13:34:33.377Z,11.50
2019-03-24T13:37:04.217Z,11.70
2019-03-24T13:39:34.149Z,11.60
2019-03-24T13:42:02.934Z,11.80
2019-03-24T13:44:32.776Z,11.60
2019-03-24T13:47:01.552Z,11.50
2019-03-24T13:49:30.586Z,11.40
2019-03-24T13:51:59.323Z,11.20
2019-03-24T13:54:29.045Z,11.30
2019-03-24T13:56:58.006Z,11.30
2019-03-24T13:59:28.287Z,11.30
2019-03-24T14:01:57.116Z,11.30
2019-03-24T14:04:25.984Z,11.40
2019-03-24T14:06:55.689Z,11.50
2019-03-24T14:09:24.332Z,11.60
2019-03-24T14:11:53.036Z,11.70
2019-03-24T14:14:21.695Z,11.70
2019-03-24T14:16:51.594Z,11.60
2019-03-24T14:19:20.327Z,11.60
2019-03-24T14:21:49.175Z,11.70
2019-03-24T14:24:17.934Z,11.60
2019-03-24T14:26:47.193Z,11.50
2019-03-24T14:29:15.971Z,11.60
2019-03-24T14:31:44.610Z,11.20
2019-03-24T14:34:15.110Z,11.30
2019-03-24T14:36:43.979Z,11.50
2019-03-24T14:39:12.803Z,11.40
2019-03-24T14:41:41.819Z,11.60
2019-03-24T14:44:12.007Z,11.60
2019-03-24T14:46:40.771Z,11.50
2019-03-24T14:49:09.486Z,11.40
2019-03-24T14:51:38.483Z,11.40
2019-03-24T14:54:07.746Z,11.20
2019-03-24T14:56:37.288Z,11.20
2019-03-24T14:59:08.123Z,11.20
2019-03-24T15:01:36.920Z,11.10
2019-03-24T15:04:05.821Z,11.10
2019-03-24T15:06:35.506Z,11.00
2019-03-24T15:09:05.761Z,11.00
2019-03-24T15:11:34.473Z,11.10
2019-03-24T15:14:03.176Z,11.20
2019-03-24T15:16:31.980Z,11.20
2019-03-24T15:19:03.525Z,11.00
2019-03-24T15:21:32.655Z,10.80
2019-03-24T15:24:03.074Z,10.90
2019-03-24T15:26:32.106Z,10.80
2019-03-24T15:29:00.909Z,10.90
2019-03-24T15:31:29.559Z,10.90
2019-03-24T15:33:58.701Z,10.90
2019-03-24T15:36:27.342Z,11.00
2019-03-24T15:38:56.099Z,11.10
2019-03-24T15:41:24.812Z,11.00
2019-03-24T15:43:53.620Z,10.80
2019-03-24T15:46:22.400Z,10.70
2019-03-24T15:48:51.194Z,10.70
2019-03-24T15:51:19.883Z,10.70
2019-03-24T15:53:48.559Z,10.80
2019-03-24T15:56:17.370Z,10.80
2019-03-24T15:58:46.260Z,10.80
2019-03-24T16:01:14.925Z,10.80
2019-03-24T16:03:43.570Z,10.80
2019-03-24T16:06:12.337Z,10.80
2019-03-24T16:08:41.138Z,10.90
2019-03-24T16:11:09.988Z,10.80
2019-03-24T16:13:38.797Z,10.80
2019-03-24T16:16:07.486Z,10.90
2019-03-24T16:18:36.374Z,10.80
2019-03-24T16:21:05.555Z,10.70
2019-03-24T16:23:34.427Z,10.60
2019-03-24T16:26:03.684Z,10.60
2019-03-24T16:28:32.537Z,10.60
2019-03-24T16:31:01.188Z,10.60
2019-03-24T16:33:30.139Z,10.60
2019-03-24T16:35:58.924Z,10.50
2019-03-24T16:38:27.624Z,10.40
2019-03-24T16:40:56.406Z,10.40
2019-03-24T16:43:25.243Z,10.20
2019-03-24T16:45:54.008Z,10.10
2019-03-24T16:48:22.685Z,10.00
2019-03-24T16:50:51.396Z,9.90
2019-03-24T16:53:20.086Z,9.90
2019-03-24T16:55:48.969Z,9.80
2019-03-24T16:58:17.804Z,9.90
2019-03-24T17:00:46.662Z,9.80
2019-03-24T17:03:15.605Z,9.70
2019-03-24T17:05:44.442Z,9.60
2019-03-24T17:08:13.259Z,9.60
2019-03-24T17:10:42.060Z,9.50
2019-03-24T17:13:10.701Z,9.50
2019-03-24T17:15:39.751Z,9.50
2019-03-24T17:18:08.642Z,9.40
2019-03-24T17:20:37.558Z,9.30
2019-03-24T17:23:06.811Z,9.30
2019-03-24T17:25:36.073Z,9.20
2019-03-24T17:28:04.744Z,9.20
2019-03-24T17:30:33.582Z,9.10
2019-03-24T17:33:02.353Z,9.10
2019-03-24T17:35:31.110Z,9.10
2019-03-24T17:38:01.302Z,8.90
2019-03-24T17:40:31.190Z,8.90
2019-03-24T17:42:59.935Z,8.80
2019-03-24T17:45:28.903Z,8.70
2019-03-24T17:47:57.682Z,8.60
2019-03-24T17:50:26.556Z,8.60
2019-03-24T17:52:55.364Z,8.50
2019-03-24T17:55:27.813Z,8.50
2019-03-24T17:57:54.605Z,8.40
2019-03-24T18:00:36.371Z,8.40
2019-03-24T18:03:05.109Z,8.40
2019-03-24T18:05:34.179Z,8.40
2019-03-24T18:08:02.964Z,8.30
2019-03-24T18:10:31.731Z,8.30
2019-03-24T18:13:00.669Z,8.20
2019-03-24T18:15:29.611Z,8.10
2019-03-24T18:17:58.400Z,8.00
2019-03-24T18:20:29.625Z,7.90
2019-03-24T18:22:58.429Z,7.90
2019-03-24T18:25:27.271Z,7.80
2019-03-24T18:27:56.356Z,7.70
2019-03-24T18:30:25.664Z,7.70
2019-03-24T18:32:54.357Z,7.70
2019-03-24T18:35:23.519Z,7.70
2019-03-24T18:37:52.245Z,7.60
2019-03-24T18:40:21.044Z,7.60
2019-03-24T18:42:49.809Z,7.50
2019-03-24T18:45:18.815Z,7.50
2019-03-24T18:47:47.773Z,7.40
2019-03-24T18:50:16.689Z,7.30
2019-03-24T18:52:45.938Z,7.20
2019-03-24T18:55:15.029Z,7.00
2019-03-24T18:57:44.640Z,6.90
2019-03-24T19:00:14.058Z,6.80
2019-03-24T19:02:43.896Z,6.60
2019-03-24T19:05:12.966Z,6.60
2019-03-24T19:07:41.864Z,6.50
2019-03-24T19:10:11.386Z,6.40
2019-03-24T19:12:40.182Z,6.30
2019-03-24T19:15:10.278Z,6.20
2019-03-24T19:17:40.389Z,6.10
2019-03-24T19:20:09.959Z,6.00
2019-03-24T19:22:39.269Z,6.00
2019-03-24T19:25:14.427Z,6.00
2019-03-24T19:27:44.884Z,6.00
2019-03-24T19:30:16.311Z,6.00
2019-03-24T19:32:47.614Z,6.00
2019-03-24T19:35:17.278Z,5.90
2019-03-24T19:37:46.414Z,5.70
2019-03-24T19:40:27.997Z,5.60
2019-03-24T19:42:56.933Z,5.40
2019-03-24T19:45:25.832Z,5.40
2019-03-24T19:47:55.292Z,5.30
2019-03-24T19:50:25.264Z,5.30
2019-03-24T19:52:54.259Z,5.30
2019-03-24T19:55:23.150Z,5.20
2019-03-24T19:57:52.065Z,5.10
2019-03-24T20:00:21.184Z,5.00
2019-03-24T20:02:50.196Z,5.00
2019-03-24T20:05:21.681Z,4.90
2019-03-24T20:07:52.542Z,4.80
2019-03-24T20:10:23.613Z,4.80
2019-03-24T20:12:54.772Z,4.90
2019-03-24T20:15:26.035Z,4.80
2019-03-24T20:17:55.272Z,4.70
2019-03-24T20:20:25.877Z,4.60
2019-03-24T20:22:57.025Z,4.50
2019-03-24T20:25:27.138Z,4.50
2019-03-24T20:27:56.952Z,4.50
2019-03-24T20:30:27.830Z,4.50
2019-03-24T20:32:58.337Z,4.50
2019-03-24T20:35:28.903Z,4.60
2019-03-24T20:38:01.776Z,4.50
2019-03-24T20:40:31.820Z,4.40
2019-03-24T20:43:02.346Z,4.40
2019-03-24T20:45:32.792Z,4.40
2019-03-24T20:48:04.014Z,4.30
2019-03-24T20:50:33.115Z,4.20
2019-03-24T20:53:05.754Z,4.20
2019-03-24T20:55:34.456Z,4.00
2019-03-24T20:58:03.615Z,4.00
2019-03-24T21:00:33.428Z,4.00
2019-03-24T21:03:02.171Z,3.90
2019-03-24T21:05:31.504Z,3.90
2019-03-24T21:08:00.346Z,3.80
2019-03-24T21:10:29.135Z,3.80
2019-03-24T21:12:58.967Z,3.80
2019-03-24T21:15:27.687Z,3.80
2019-03-24T21:17:58.135Z,3.90
2019-03-24T21:20:26.942Z,3.90
2019-03-24T21:22:55.849Z,3.90
2019-03-24T21:25:26.492Z,3.90
2019-03-24T21:27:55.220Z,3.90
2019-03-24T21:30:32.538Z,3.90
2019-03-24T21:33:01.281Z,3.90
2019-03-24T21:35:32.207Z,3.90
2019-03-24T21:38:00.870Z,3.90
2019-03-24T21:40:29.561Z,3.80
2019-03-24T21:42:58.961Z,3.80
2019-03-24T21:45:27.741Z,3.70
2019-03-24T21:47:56.609Z,3.70
2019-03-24T21:50:25.283Z,3.60
2019-03-24T21:52:53.939Z,3.60
2019-03-24T21:55:22.748Z,3.70
2019-03-24T21:57:57.388Z,3.60
2019-03-24T22:00:31.711Z,3.60
2019-03-24T22:03:00.517Z,3.60
2019-03-24T22:05:30.235Z,3.70
2019-03-24T22:07:58.932Z,3.70
2019-03-24T22:10:27.631Z,3.60
2019-03-24T22:12:56.355Z,3.50
2019-03-24T22:15:25.302Z,3.50
2019-03-24T22:17:53.958Z,3.50
2019-03-24T22:20:22.694Z,3.40
2019-03-24T22:22:51.338Z,3.40
2019-03-24T22:25:20.049Z,3.50
2019-03-24T22:27:49.026Z,3.60
2019-03-24T22:30:17.829Z,3.50
2019-03-24T22:32:46.479Z,3.40
2019-03-24T22:35:15.360Z,3.30
2019-03-24T22:37:43.990Z,3.30
2019-03-24T22:40:13.884Z,3.30
2019-03-24T22:42:43.465Z,3.30
2019-03-24T22:45:13.113Z,3.20
2019-03-24T22:47:41.712Z,3.30
2019-03-24T22:50:10.557Z,3.30
2019-03-24T22:52:39.220Z,3.20
2019-03-24T22:55:08.198Z,3.30
2019-03-24T22:57:36.840Z,3.30
2019-03-24T23:00:08.714Z,3.30
2019-03-24T23:02:37.325Z,3.20
2019-03-24T23:05:07.657Z,3.10
2019-03-24T23:07:36.370Z,3.00
2019-03-24T23:10:05.086Z,3.00
2019-03-24T23:12:33.690Z,3.00
2019-03-24T23:15:02.339Z,3.00
2019-03-24T23:17:30.995Z,3.00
2019-03-24T23:19:59.757Z,3.00
2019-03-24T23:22:28.499Z,2.90
2019-03-24T23:24:58.307Z,2.90
2019-03-24T23:27:26.944Z,2.90
2019-03-24T23:29:55.585Z,2.90
2019-03-24T23:32:24.181Z,2.90
2019-03-24T23:34:52.831Z,2.80
2019-03-24T23:37:21.429Z,2.90
2019-03-24T23:39:50.034Z,2.90
2019-03-24T23:42:18.748Z,2.80
2019-03-24T23:44:47.347Z,2.80
2019-03-24T23:47:15.928Z,2.70
2019-03-24T23:49:44.518Z,2.70
2019-03-24T23:52:13.213Z,2.70
2019-03-24T23:54:42.118Z,2.70
2019-03-24T23:57:10.743Z,2.60
2019-03-24T23:59:39.401Z,2.60
